createdAt,value
2018-12-29T00:01:36.426Z,36.45
2018-12-29T00:04:06.037Z,37.63
2018-12-29T00:06:35.642Z,37.45
2018-12-29T00:09:06.843Z,36.00
2018-12-29T00:11:36.494Z,38.00
2018-12-29T00:14:06.184Z,35.55
2018-12-29T00:16:35.911Z,36.15
2018-12-29T00:19:05.585Z,36.42
2018-12-29T00:21:35.346Z,34.73
2018-12-29T00:24:04.833Z,37.25
2018-12-29T00:26:34.538Z,37.53
2018-12-29T00:29:04.270Z,36.80
2018-12-29T00:31:33.749Z,40.08
2018-12-29T00:34:03.251Z,37.40
2018-12-29T00:36:32.644Z,36.83
2018-12-29T00:39:02.224Z,36.15
2018-12-29T00:41:31.985Z,37.93
2018-12-29T00:44:01.676Z,38.98
2018-12-29T00:46:31.263Z,35.58
2018-12-29T00:49:00.725Z,39.10
2018-12-29T00:51:30.391Z,34.53
2018-12-29T00:53:59.880Z,36.17
2018-12-29T00:56:29.511Z,38.55
2018-12-29T00:58:59.977Z,37.35
2018-12-29T01:01:30.688Z,35.58
2018-12-29T01:04:01.622Z,34.88
2018-12-29T01:06:32.582Z,36.65
2018-12-29T01:09:02.812Z,35.50
2018-12-29T01:11:32.461Z,37.40
2018-12-29T01:14:01.960Z,33.30
2018-12-29T01:16:32.100Z,35.68
2018-12-29T01:19:01.684Z,36.85
2018-12-29T01:21:31.188Z,36.35
2018-12-29T01:24:00.904Z,38.30
2018-12-29T01:26:31.141Z,36.53
2018-12-29T01:29:00.724Z,36.65
2018-12-29T01:31:30.300Z,35.92
2018-12-29T01:34:00.037Z,34.35
2018-12-29T01:36:29.641Z,36.15
2018-12-29T01:38:59.459Z,34.78
2018-12-29T01:41:28.979Z,36.68
2018-12-29T01:43:58.771Z,36.42
2018-12-29T01:46:28.618Z,37.73
2018-12-29T01:48:58.270Z,36.77
2018-12-29T01:51:27.780Z,36.00
2018-12-29T01:53:57.661Z,34.55
2018-12-29T01:56:27.537Z,35.68
2018-12-29T01:58:57.304Z,38.55
2018-12-29T02:01:27.178Z,37.00
2018-12-29T02:04:03.061Z,37.03
2018-12-29T02:06:32.938Z,36.83
2018-12-29T02:09:02.937Z,36.73
2018-12-29T02:11:32.576Z,34.95
2018-12-29T02:14:03.177Z,35.30
2018-12-29T02:16:33.896Z,35.45
2018-12-29T02:19:04.618Z,36.33
2018-12-29T02:21:34.257Z,36.03
2018-12-29T02:24:04.621Z,36.28
2018-12-29T02:26:34.255Z,38.70
2018-12-29T02:29:03.855Z,36.30
2018-12-29T02:31:33.352Z,33.60
2018-12-29T02:34:02.815Z,35.50
2018-12-29T02:36:32.576Z,35.78
2018-12-29T02:39:02.084Z,36.30
2018-12-29T02:41:31.792Z,35.68
2018-12-29T02:44:01.494Z,34.48
2018-12-29T02:46:31.094Z,35.28
2018-12-29T02:49:00.705Z,36.85
2018-12-29T02:51:31.436Z,36.08
2018-12-29T02:54:01.191Z,36.83
2018-12-29T02:56:30.892Z,33.33
2018-12-29T02:59:00.778Z,35.05
2018-12-29T03:01:30.372Z,34.58
2018-12-29T03:04:00.082Z,33.10
2018-12-29T03:06:29.682Z,31.65
2018-12-29T03:08:59.337Z,33.70
2018-12-29T03:11:28.892Z,35.58
2018-12-29T03:13:58.600Z,34.80
2018-12-29T03:16:28.386Z,34.90
2018-12-29T03:18:57.957Z,34.55
2018-12-29T03:21:27.520Z,34.03
2018-12-29T03:23:57.127Z,33.05
2018-12-29T03:26:26.691Z,32.60
2018-12-29T03:28:56.577Z,33.63
2018-12-29T03:31:26.157Z,34.80
2018-12-29T03:33:55.731Z,32.30
2018-12-29T03:36:25.371Z,33.58
2018-12-29T03:38:55.068Z,31.95
2018-12-29T03:41:24.673Z,36.03
2018-12-29T03:43:54.110Z,35.85
2018-12-29T03:46:23.493Z,34.48
2018-12-29T03:48:53.090Z,36.98
2018-12-29T03:51:22.429Z,35.85
2018-12-29T03:53:51.986Z,35.03
2018-12-29T03:56:21.347Z,34.45
2018-12-29T03:58:51.055Z,36.58
2018-12-29T04:01:20.692Z,35.95
2018-12-29T04:03:50.203Z,33.80
2018-12-29T04:06:20.089Z,34.53
2018-12-29T04:09:13.367Z,32.80
2018-12-29T04:11:43.011Z,35.88
2018-12-29T04:14:12.591Z,32.40
2018-12-29T04:16:42.052Z,34.38
2018-12-29T04:19:11.566Z,33.25
2018-12-29T04:21:41.203Z,34.75
2018-12-29T04:24:10.807Z,32.67
2018-12-29T04:26:40.310Z,34.98
2018-12-29T04:29:09.916Z,35.17
2018-12-29T04:31:39.343Z,36.98
2018-12-29T04:34:08.922Z,34.75
2018-12-29T04:36:38.532Z,39.05
2018-12-29T04:39:08.206Z,33.90
2018-12-29T04:41:37.645Z,33.38
2018-12-29T04:44:07.131Z,35.68
2018-12-29T04:46:36.750Z,36.93
2018-12-29T04:49:06.355Z,36.93
2018-12-29T04:51:36.286Z,37.05
2018-12-29T04:54:06.045Z,36.00
2018-12-29T04:56:35.743Z,35.28
2018-12-29T04:59:05.391Z,35.63
2018-12-29T05:01:34.963Z,36.17
2018-12-29T05:04:04.605Z,33.28
2018-12-29T05:06:34.312Z,36.70
2018-12-29T05:09:04.844Z,35.58
2018-12-29T05:11:34.453Z,34.40
2018-12-29T05:14:04.244Z,33.02
2018-12-29T05:16:33.868Z,33.53
2018-12-29T05:19:04.005Z,34.13
2018-12-29T05:21:33.700Z,35.48
2018-12-29T05:24:03.701Z,34.73
2018-12-29T05:26:33.512Z,33.95
2018-12-29T05:29:03.120Z,34.03
2018-12-29T05:31:32.522Z,33.60
2018-12-29T05:34:02.024Z,30.52
2018-12-29T05:36:32.084Z,30.85
2018-12-29T05:39:01.439Z,35.00
2018-12-29T05:41:31.145Z,34.85
2018-12-29T05:44:00.556Z,33.85
2018-12-29T05:46:30.152Z,35.58
2018-12-29T05:48:59.655Z,33.02
2018-12-29T05:51:29.260Z,36.45
2018-12-29T05:53:59.081Z,35.28
2018-12-29T05:56:28.678Z,35.83
2018-12-29T05:58:58.365Z,33.65
2018-12-29T06:01:28.120Z,37.98
2018-12-29T06:03:57.801Z,35.73
2018-12-29T06:06:27.341Z,39.05
2018-12-29T06:08:58.548Z,34.20
2018-12-29T06:11:28.052Z,34.53
2018-12-29T06:13:57.763Z,34.20
2018-12-29T06:16:27.809Z,35.50
2018-12-29T06:18:57.575Z,36.08
2018-12-29T06:21:27.278Z,36.30
2018-12-29T06:23:56.490Z,38.25
2018-12-29T06:26:26.198Z,33.60
2018-12-29T06:28:55.909Z,38.67
2018-12-29T06:31:25.546Z,35.40
2018-12-29T06:33:55.324Z,36.85
2018-12-29T06:36:25.116Z,37.28
2018-12-29T06:38:54.640Z,39.53
2018-12-29T06:41:24.581Z,35.63
2018-12-29T06:43:54.687Z,34.75
2018-12-29T06:46:24.487Z,39.53
2018-12-29T06:48:54.494Z,35.55
2018-12-29T06:51:23.561Z,38.10
2018-12-29T06:53:53.210Z,36.33
2018-12-29T06:56:22.974Z,37.98
2018-12-29T06:58:52.867Z,39.58
2018-12-29T07:01:22.837Z,38.25
2018-12-29T07:03:53.138Z,38.53
2018-12-29T07:06:22.237Z,37.35
2018-12-29T07:08:52.363Z,38.63
2018-12-29T07:11:21.524Z,39.48
2018-12-29T07:13:51.407Z,37.40
2018-12-29T07:16:21.402Z,41.40
2018-12-29T07:18:51.672Z,36.77
2018-12-29T07:21:21.455Z,39.08
2018-12-29T07:23:51.335Z,39.08
2018-12-29T07:26:21.156Z,37.65
2018-12-29T07:29:04.139Z,40.65
2018-12-29T07:31:34.355Z,39.60
2018-12-29T07:34:04.478Z,38.05
2018-12-29T07:36:34.496Z,39.08
2018-12-29T07:39:05.685Z,40.48
2018-12-29T07:41:35.922Z,40.50
2018-12-29T07:44:05.673Z,40.35
2018-12-29T07:46:35.557Z,41.50
2018-12-29T07:49:05.603Z,41.75
2018-12-29T07:51:35.319Z,40.63
2018-12-29T07:54:05.030Z,40.20
2018-12-29T07:56:35.046Z,39.95
2018-12-29T07:59:04.717Z,39.73
2018-12-29T08:01:34.775Z,38.30
2018-12-29T08:04:04.583Z,38.40
2018-12-29T08:06:34.177Z,37.33
2018-12-29T08:09:05.079Z,38.42
2018-12-29T08:11:34.950Z,37.88
2018-12-29T08:14:05.196Z,41.10
2018-12-29T08:16:56.974Z,40.95
2018-12-29T08:19:25.416Z,41.08
2018-12-29T08:21:55.118Z,40.48
2018-12-29T08:24:25.351Z,42.08
2018-12-29T08:26:55.530Z,41.50
2018-12-29T08:29:25.641Z,40.63
2018-12-29T08:31:55.751Z,41.13
2018-12-29T08:34:26.436Z,43.75
2018-12-29T08:36:56.635Z,42.35
2018-12-29T08:39:26.686Z,42.48
2018-12-29T08:41:56.672Z,43.40
2018-12-29T08:44:26.792Z,42.88
2018-12-29T08:46:56.809Z,43.05
2018-12-29T08:49:26.908Z,41.33
2018-12-29T08:51:56.713Z,42.85
2018-12-29T08:54:27.003Z,40.78
2018-12-29T08:56:56.816Z,42.58
2018-12-29T08:59:26.697Z,40.65
2018-12-29T09:01:56.789Z,42.30
2018-12-29T09:04:26.938Z,43.75
2018-12-29T09:06:56.790Z,43.75
2018-12-29T09:09:26.791Z,40.20
2018-12-29T09:11:57.051Z,41.30
2018-12-29T09:14:26.616Z,44.33
2018-12-29T09:16:56.446Z,43.73
2018-12-29T09:19:27.389Z,43.85
2018-12-29T09:21:57.746Z,43.75
2018-12-29T09:24:27.625Z,44.35
2018-12-29T09:26:57.513Z,45.70
2018-12-29T09:29:28.115Z,45.40
2018-12-29T09:31:57.875Z,48.73
2018-12-29T09:34:27.847Z,48.78
2018-12-29T09:36:57.579Z,48.68
2018-12-29T09:39:27.495Z,48.80
2018-12-29T09:41:57.394Z,47.55
2018-12-29T09:44:27.745Z,48.33
2018-12-29T09:46:57.550Z,48.87
2018-12-29T09:49:27.299Z,50.28
2018-12-29T09:52:15.753Z,47.48
2018-12-29T09:54:45.787Z,44.93
2018-12-29T09:57:15.737Z,45.28
2018-12-29T09:59:45.749Z,46.18
2018-12-29T10:02:15.502Z,46.90
2018-12-29T10:04:45.392Z,41.90
2018-12-29T10:07:15.156Z,45.03
2018-12-29T10:09:44.839Z,42.50
2018-12-29T10:12:14.540Z,40.65
2018-12-29T10:14:44.392Z,41.75
2018-12-29T10:17:13.998Z,38.55
2018-12-29T10:19:43.848Z,39.58
2018-12-29T10:22:13.430Z,40.75
2018-12-29T10:24:43.019Z,39.85
2018-12-29T10:27:12.654Z,38.10
2018-12-29T10:29:42.335Z,38.20
2018-12-29T10:32:12.261Z,42.23
2018-12-29T10:34:41.749Z,40.23
2018-12-29T10:37:11.362Z,37.03
2018-12-29T10:39:40.869Z,40.25
2018-12-29T10:42:10.518Z,40.75
2018-12-29T10:44:40.485Z,38.33
2018-12-29T10:47:10.220Z,41.42
2018-12-29T10:49:40.622Z,39.18
2018-12-29T10:52:10.220Z,43.30
2018-12-29T10:54:40.151Z,37.08
2018-12-29T10:57:09.979Z,43.30
2018-12-29T10:59:39.987Z,41.53
2018-12-29T11:02:16.507Z,40.00
2018-12-29T11:04:46.338Z,36.23
2018-12-29T11:07:15.871Z,40.88
2018-12-29T11:09:45.989Z,37.50
2018-12-29T11:12:15.875Z,38.13
2018-12-29T11:14:45.739Z,40.15
2018-12-29T11:17:15.803Z,36.73
2018-12-29T11:19:45.617Z,38.65
2018-12-29T11:22:15.760Z,42.17
2018-12-29T11:24:46.254Z,34.00
2018-12-29T11:27:16.294Z,37.93
2018-12-29T11:29:46.085Z,42.43
2018-12-29T11:32:16.110Z,38.28
2018-12-29T11:34:46.347Z,39.98
2018-12-29T11:37:16.540Z,41.60
2018-12-29T11:39:46.589Z,35.88
2018-12-29T11:42:16.270Z,36.63
2018-12-29T11:44:45.866Z,39.63
2018-12-29T11:47:15.740Z,37.17
2018-12-29T11:49:45.808Z,36.98
2018-12-29T11:52:15.737Z,37.73
2018-12-29T11:54:45.519Z,37.45
2018-12-29T11:57:15.620Z,35.95
2018-12-29T11:59:45.396Z,35.20
2018-12-29T12:02:15.029Z,36.58
2018-12-29T12:04:45.067Z,36.60
2018-12-29T12:07:14.659Z,35.75
2018-12-29T12:09:44.833Z,34.25
2018-12-29T12:12:14.499Z,35.25
2018-12-29T12:14:44.180Z,33.67
2018-12-29T12:17:14.346Z,35.05
2018-12-29T12:19:44.714Z,35.68
2018-12-29T12:22:14.897Z,31.73
2018-12-29T12:24:44.870Z,32.53
2018-12-29T12:27:14.781Z,31.52
2018-12-29T12:29:45.266Z,33.18
2018-12-29T12:32:15.273Z,33.08
2018-12-29T12:34:45.431Z,33.02
2018-12-29T12:37:15.622Z,33.42
2018-12-29T12:39:45.757Z,31.40
2018-12-29T12:42:15.613Z,30.85
2018-12-29T12:44:45.496Z,31.02
2018-12-29T12:47:15.496Z,28.12
2018-12-29T12:49:45.249Z,27.32
2018-12-29T12:52:14.853Z,29.02
2018-12-29T12:54:44.367Z,27.22
2018-12-29T12:57:14.779Z,29.10
2018-12-29T12:59:44.808Z,28.98
2018-12-29T13:02:14.683Z,29.25
2018-12-29T13:04:44.683Z,30.02
2018-12-29T13:07:14.669Z,30.52
2018-12-29T13:09:46.511Z,27.42
2018-12-29T13:12:16.336Z,28.70
2018-12-29T13:14:46.129Z,28.47
2018-12-29T13:17:16.345Z,29.67
2018-12-29T13:19:46.694Z,30.65
2018-12-29T13:22:16.705Z,28.70
2018-12-29T13:24:46.710Z,29.05
2018-12-29T13:27:16.474Z,30.88
2018-12-29T13:29:46.449Z,29.45
2018-12-29T13:32:16.331Z,27.58
2018-12-29T13:34:46.579Z,27.95
2018-12-29T13:37:16.258Z,29.05
2018-12-29T13:39:46.063Z,30.27
2018-12-29T13:42:15.516Z,28.05
2018-12-29T13:44:45.612Z,30.80
2018-12-29T13:47:15.730Z,29.18
2018-12-29T13:49:45.621Z,28.95
2018-12-29T13:52:15.494Z,29.10
2018-12-29T13:54:45.619Z,28.32
2018-12-29T13:57:15.637Z,27.87
2018-12-29T13:59:46.013Z,28.10
2018-12-29T14:02:15.971Z,27.00
2018-12-29T14:04:45.970Z,27.65
2018-12-29T14:07:15.998Z,26.23
2018-12-29T14:09:46.088Z,26.68
2018-12-29T14:12:16.101Z,26.23
2018-12-29T14:14:46.222Z,27.65
2018-12-29T14:17:16.095Z,26.00
2018-12-29T14:19:45.909Z,27.13
2018-12-29T14:22:16.567Z,27.48
2018-12-29T14:24:46.569Z,26.85
2018-12-29T14:27:16.157Z,28.45
2018-12-29T14:29:46.249Z,27.85
2018-12-29T14:32:16.445Z,29.15
2018-12-29T14:34:46.571Z,29.82
2018-12-29T14:37:16.406Z,27.70
2018-12-29T14:39:46.250Z,24.82
2018-12-29T14:42:16.448Z,28.90
2018-12-29T14:44:46.783Z,28.65
2018-12-29T14:47:16.614Z,29.30
2018-12-29T14:49:46.503Z,22.75
2018-12-29T14:52:16.692Z,28.00
2018-12-29T14:54:46.821Z,31.55
2018-12-29T14:57:17.099Z,29.67
2018-12-29T14:59:47.319Z,30.62
2018-12-29T15:02:17.438Z,28.12
2018-12-29T15:04:47.456Z,30.85
2018-12-29T15:07:17.661Z,30.43
2018-12-29T15:09:47.766Z,26.80
2018-12-29T15:12:17.405Z,32.03
2018-12-29T15:14:47.169Z,22.67
2018-12-29T15:17:17.074Z,30.80
2018-12-29T15:19:46.683Z,23.57
2018-12-29T15:22:16.618Z,30.10
2018-12-29T15:24:47.042Z,31.17
2018-12-29T15:27:16.979Z,25.23
2018-12-29T15:29:46.682Z,30.37
2018-12-29T15:32:16.682Z,29.77
2018-12-29T15:34:46.565Z,30.25
2018-12-29T15:37:16.447Z,26.75
2018-12-29T15:39:46.190Z,30.48
2018-12-29T15:42:16.154Z,29.25
2018-12-29T15:44:46.015Z,27.50
2018-12-29T15:47:15.734Z,26.25
2018-12-29T15:49:45.942Z,20.35
2018-12-29T15:52:15.961Z,22.42
2018-12-29T15:54:46.180Z,24.07
2018-12-29T15:57:15.719Z,22.37
2018-12-29T15:59:45.961Z,21.85
2018-12-29T16:02:15.814Z,18.40
2018-12-29T16:04:45.483Z,14.15
2018-12-29T16:07:14.884Z,16.12
2018-12-29T16:09:44.644Z,17.65
2018-12-29T16:12:15.004Z,17.65
2018-12-29T16:14:45.841Z,15.48
2018-12-29T16:17:15.921Z,15.45
2018-12-29T16:19:45.962Z,16.23
2018-12-29T16:22:15.844Z,12.55
2018-12-29T16:24:45.554Z,13.20
2018-12-29T16:27:15.719Z,12.23
2018-12-29T16:29:45.485Z,12.82
2018-12-29T16:32:15.361Z,13.62
2018-12-29T16:34:45.597Z,13.55
2018-12-29T16:37:15.481Z,14.55
2018-12-29T16:39:45.613Z,14.47
2018-12-29T16:42:15.570Z,15.50
2018-12-29T16:44:45.359Z,16.35
2018-12-29T16:47:15.125Z,16.23
2018-12-29T16:49:45.239Z,14.53
2018-12-29T16:52:15.613Z,15.38
2018-12-29T16:54:45.479Z,17.20
2018-12-29T16:57:15.238Z,11.85
2018-12-29T16:59:44.880Z,18.07
2018-12-29T17:02:15.240Z,15.55
2018-12-29T17:04:45.248Z,17.42
2018-12-29T17:07:14.989Z,18.73
2018-12-29T17:09:44.878Z,17.07
2018-12-29T17:12:14.768Z,18.12
2018-12-29T17:14:44.334Z,20.50
2018-12-29T17:17:14.156Z,18.17
2018-12-29T17:19:43.945Z,21.60
2018-12-29T17:22:13.751Z,18.57
2018-12-29T17:24:43.560Z,21.73
2018-12-29T17:27:13.783Z,23.25
2018-12-29T17:29:43.500Z,23.85
2018-12-29T17:32:13.557Z,25.52
2018-12-29T17:34:43.715Z,20.35
2018-12-29T17:37:13.689Z,19.75
2018-12-29T17:39:44.038Z,24.70
2018-12-29T17:42:13.915Z,22.37
2018-12-29T17:44:43.376Z,25.70
2018-12-29T17:47:13.560Z,23.15
2018-12-29T17:49:43.254Z,26.95
2018-12-29T17:52:13.072Z,24.85
2018-12-29T17:54:42.959Z,23.27
2018-12-29T17:57:12.595Z,25.57
2018-12-29T17:59:42.478Z,29.10
2018-12-29T18:02:12.179Z,30.62
2018-12-29T18:04:42.122Z,29.45
2018-12-29T18:07:11.976Z,28.23
2018-12-29T18:09:41.761Z,34.23
2018-12-29T18:12:11.871Z,27.45
2018-12-29T18:14:42.081Z,27.62
2018-12-29T18:17:11.936Z,31.97
2018-12-29T18:19:41.874Z,30.75
2018-12-29T18:22:11.664Z,34.05
2018-12-29T18:24:41.588Z,33.73
2018-12-29T18:27:11.180Z,34.27
2018-12-29T18:29:41.036Z,35.33
2018-12-29T18:32:11.040Z,35.35
2018-12-29T18:34:41.042Z,35.00
2018-12-29T18:37:11.343Z,35.40
2018-12-29T18:39:41.061Z,35.95
2018-12-29T18:42:10.668Z,34.92
2018-12-29T18:44:40.262Z,35.38
2018-12-29T18:47:10.074Z,38.80
2018-12-29T18:49:40.088Z,34.15
2018-12-29T18:52:10.567Z,34.50
2018-12-29T18:54:40.527Z,35.92
2018-12-29T18:57:10.667Z,31.23
2018-12-29T18:59:40.558Z,38.05
2018-12-29T19:02:10.272Z,35.83
2018-12-29T19:04:40.311Z,29.45
2018-12-29T19:07:10.301Z,37.70
2018-12-29T19:09:40.310Z,35.48
2018-12-29T19:12:11.374Z,36.25
2018-12-29T19:14:41.516Z,31.50
2018-12-29T19:17:11.635Z,33.63
2018-12-29T19:19:46.220Z,31.45
2018-12-29T19:22:13.544Z,33.35
2018-12-29T19:24:42.998Z,31.30
2018-12-29T19:27:12.960Z,31.87
2018-12-29T19:29:43.316Z,29.65
2018-12-29T19:32:13.308Z,31.97
2018-12-29T19:34:43.356Z,27.70
2018-12-29T19:37:13.665Z,31.80
2018-12-29T19:39:43.663Z,29.45
2018-12-29T19:42:13.910Z,28.00
2018-12-29T19:44:43.548Z,27.07
2018-12-29T19:47:14.857Z,27.87
2018-12-29T19:49:44.504Z,26.50
2018-12-29T19:52:14.635Z,23.75
2018-12-29T19:54:44.625Z,21.48
2018-12-29T19:57:14.990Z,22.22
2018-12-29T19:59:45.440Z,21.23
2018-12-29T20:02:15.598Z,20.00
2018-12-29T20:04:45.960Z,15.90
2018-12-29T20:07:16.569Z,15.15
2018-12-29T20:09:47.027Z,12.35
2018-12-29T20:12:16.780Z,10.18
2018-12-29T20:14:46.426Z,9.50
2018-12-29T20:17:16.603Z,8.45
2018-12-29T20:19:46.427Z,8.73
2018-12-29T20:22:16.305Z,9.00
2018-12-29T20:24:46.416Z,8.30
2018-12-29T20:27:16.064Z,7.95
2018-12-29T20:29:45.947Z,6.60
2018-12-29T20:32:16.180Z,6.67
2018-12-29T20:34:46.063Z,6.87
2018-12-29T20:37:15.952Z,5.10
2018-12-29T20:39:46.076Z,4.62
2018-12-29T20:42:16.060Z,3.95
2018-12-29T20:44:46.067Z,4.10
2018-12-29T20:47:15.944Z,4.33
2018-12-29T20:49:45.941Z,3.30
2018-12-29T20:52:15.819Z,3.60
2018-12-29T20:54:45.981Z,4.28
2018-12-29T20:57:16.059Z,3.25
2018-12-29T20:59:51.938Z,4.35
2018-12-29T21:02:21.584Z,4.05
2018-12-29T21:04:51.458Z,3.58
2018-12-29T21:07:21.489Z,4.78
2018-12-29T21:09:51.456Z,4.42
2018-12-29T21:12:21.340Z,3.72
2018-12-29T21:14:51.582Z,3.65
2018-12-29T21:17:21.469Z,3.60
2018-12-29T21:19:51.669Z,3.02
2018-12-29T21:22:21.678Z,2.95
2018-12-29T21:24:51.587Z,3.05
2018-12-29T21:27:21.340Z,2.72
2018-12-29T21:29:51.461Z,3.62
2018-12-29T21:32:21.220Z,1.80
2018-12-29T21:34:50.935Z,3.80
2018-12-29T21:37:20.623Z,3.35
2018-12-29T21:39:50.296Z,3.33
2018-12-29T21:42:20.271Z,3.65
2018-12-29T21:44:49.600Z,3.02
2018-12-29T21:47:19.373Z,2.77
2018-12-29T21:49:49.053Z,2.40
2018-12-29T21:52:18.938Z,4.53
2018-12-29T21:54:48.502Z,4.47
2018-12-29T21:57:18.459Z,3.95
2018-12-29T21:59:49.302Z,4.20
2018-12-29T22:02:19.191Z,3.35
2018-12-29T22:04:49.173Z,2.95
2018-12-29T22:07:19.174Z,3.65
2018-12-29T22:09:49.059Z,2.95
2018-12-29T22:12:18.813Z,3.27
2018-12-29T22:14:48.148Z,2.80
2018-12-29T22:17:18.026Z,3.67
2018-12-29T22:19:48.217Z,4.28
2018-12-29T22:22:18.159Z,4.90
2018-12-29T22:24:47.779Z,3.33
2018-12-29T22:27:17.611Z,2.65
2018-12-29T22:29:46.975Z,4.28
2018-12-29T22:32:17.195Z,3.55
2018-12-29T22:34:46.771Z,3.65
2018-12-29T22:37:16.821Z,3.40
2018-12-29T22:39:46.411Z,3.65
2018-12-29T22:42:15.925Z,3.70
2018-12-29T22:44:45.821Z,3.45
2018-12-29T22:47:15.444Z,3.40
2018-12-29T22:49:45.211Z,4.10
2018-12-29T22:52:14.965Z,4.12
2018-12-29T22:54:44.893Z,5.20
2018-12-29T22:57:14.854Z,3.00
2018-12-29T22:59:44.708Z,5.47
2018-12-29T23:02:14.311Z,4.62
2018-12-29T23:04:44.369Z,3.75
2018-12-29T23:07:14.346Z,3.52
2018-12-29T23:09:44.258Z,3.80
2018-12-29T23:12:13.860Z,4.33
2018-12-29T23:14:43.464Z,3.98
2018-12-29T23:17:13.173Z,4.62
2018-12-29T23:19:42.882Z,4.30
2018-12-29T23:22:12.570Z,3.92
2018-12-29T23:24:42.195Z,4.80
2018-12-29T23:27:11.798Z,3.90
2018-12-29T23:29:41.743Z,4.03
2018-12-29T23:32:11.730Z,3.85
2018-12-29T23:34:41.849Z,2.95
2018-12-29T23:37:11.456Z,5.35
2018-12-29T23:39:41.254Z,4.05
2018-12-29T23:42:11.012Z,3.95
2018-12-29T23:44:40.898Z,4.55
2018-12-29T23:47:10.287Z,4.17
2018-12-29T23:49:39.930Z,3.90
2018-12-29T23:52:10.216Z,4.70
2018-12-29T23:54:40.167Z,4.53
2018-12-29T23:57:10.039Z,3.47
2018-12-29T23:59:39.749Z,4.42
